Time;durP1;ratioP1;P1;durP2;ratioP2;P2;SDS_P1;SDS_P2;PMS_P1;PMS_P2;Temp;Humidity;BMP_temperature;BMP_pressure;BME280_temperature;BME280_humidity;BME280_pressure;Samples;Min_cycle;Max_cycle;Signal;HPM_P1;HPM_P2
2022/11/06 00:01:09;;;;;;;1.85;0.93;;;20.30;44.90;;;;;;5052831;28;20090;-49
2022/11/06 00:03:35;;;;;;;2.83;1.15;;;20.30;44.90;;;;;;5045399;28;20095;-45
2022/11/06 00:08:53;;;;;;;1.95;1.30;;;20.30;44.90;;;;;;5049922;28;20029;-46
2022/11/06 00:11:19;;;;;;;2.45;1.25;;;20.30;44.90;;;;;;5040106;28;20049;-46
2022/11/06 00:13:51;;;;;;;3.35;1.40;;;20.30;44.90;;;;;;5057886;28;20044;-47
2022/11/06 00:16:18;;;;;;;2.50;1.30;;;20.30;44.80;;;;;;5058157;28;20079;-49
2022/11/06 00:18:44;;;;;;;3.58;1.23;;;20.30;45.00;;;;;;5057437;28;20033;-49
2022/11/06 00:21:14;;;;;;;2.22;1.08;;;20.30;44.80;;;;;;5057118;28;20025;-47
2022/11/06 00:23:40;;;;;;;1.90;1.10;;;20.20;44.80;;;;;;5056530;28;20669;-49
2022/11/06 00:26:08;;;;;;;2.00;1.25;;;20.20;44.80;;;;;;5057898;28;20025;-52
2022/11/06 00:28:34;;;;;;;4.60;1.20;;;20.20;44.80;;;;;;5056901;28;20036;-53
2022/11/06 00:31:08;;;;;;;2.00;1.20;;;20.20;44.80;;;;;;5049589;28;20064;-53
2022/11/06 00:33:34;;;;;;;2.10;0.93;;;20.20;44.80;;;;;;5037772;28;20025;-50
2022/11/06 00:36:05;;;;;;;2.85;1.20;;;20.20;44.90;;;;;;5040624;28;20040;-51
2022/11/06 00:38:32;;;;;;;1.75;1.10;;;20.20;44.90;;;;;;5038086;28;20048;-47
2022/11/06 00:41:14;;;;;;;2.83;1.13;;;20.20;44.90;;;;;;5037659;28;20033;-48
2022/11/06 00:43:41;;;;;;;2.63;1.20;;;20.20;44.90;;;;;;5037287;28;20037;-45
2022/11/06 00:46:09;;;;;;;1.52;0.90;;;20.20;44.90;;;;;;5037387;28;20030;-47
2022/11/06 00:48:36;;;;;;;2.90;1.20;;;20.20;44.90;;;;;;5043477;28;20037;-48
2022/11/06 00:51:07;;;;;;;2.58;1.10;;;20.20;44.90;;;;;;5050202;28;20042;-47
2022/11/06 00:53:33;;;;;;;3.20;1.10;;;20.20;44.90;;;;;;5037770;28;20069;-46
2022/11/06 00:56:09;;;;;;;2.35;1.17;;;20.20;44.90;;;;;;5055677;28;20029;-49
2022/11/06 00:58:35;;;;;;;1.60;0.90;;;20.20;44.90;;;;;;5057196;28;20040;-50
2022/11/06 01:01:06;;;;;;;1.08;0.90;;;20.10;44.80;;;;;;5051973;28;20067;-46
2022/11/06 01:03:32;;;;;;;2.15;1.15;;;20.10;44.80;;;;;;5044806;28;20031;-47
2022/11/06 01:06:06;;;;;;;3.20;1.20;;;20.20;44.90;;;;;;5044126;28;20116;-47
2022/11/06 01:08:32;;;;;;;1.95;1.08;;;20.10;44.80;;;;;;5036471;28;20033;-47
2022/11/06 01:10:58;;;;;;;2.45;1.40;;;20.10;44.80;;;;;;5056753;28;20055;-49
2022/11/06 01:13:23;;;;;;;2.50;1.15;;;20.10;44.80;;;;;;5055817;28;20440;-48
2022/11/06 01:15:49;;;;;;;5.40;1.10;;;20.10;44.80;;;;;;5057005;28;20039;-48
2022/11/06 01:18:15;;;;;;;2.72;1.10;;;20.10;44.80;;;;;;5048751;28;20079;-50
2022/11/06 01:20:41;;;;;;;2.25;1.20;;;20.10;44.80;;;;;;5055764;28;20044;-50
2022/11/06 01:23:06;;;;;;;3.20;1.10;;;20.10;44.80;;;;;;5056482;28;20025;-49
2022/11/06 01:25:32;;;;;;;2.47;1.08;;;20.10;44.80;;;;;;5036462;28;20098;-50
2022/11/06 01:27:58;;;;;;;1.75;0.90;;;20.10;44.80;;;;;;5036672;28;20022;-48
2022/11/06 01:30:24;;;;;;;2.53;1.13;;;20.10;44.80;;;;;;5050659;28;20433;-48
2022/11/06 01:32:49;;;;;;;2.22;0.90;;;20.10;44.80;;;;;;5049404;28;20029;-49
2022/11/06 01:35:15;;;;;;;1.58;0.85;;;20.10;44.80;;;;;;5039639;28;20090;-51
2022/11/06 01:37:42;;;;;;;1.77;0.95;;;20.10;44.80;;;;;;5056705;28;20100;-46
2022/11/06 01:40:08;;;;;;;1.83;0.90;;;20.10;44.80;;;;;;5043257;28;20025;-49
2022/11/06 01:42:34;;;;;;;3.15;1.00;;;20.10;44.80;;;;;;5036676;28;20117;-48
2022/11/06 01:45:30;;;;;;;2.65;1.30;;;20.10;44.90;;;;;;5036388;28;20109;-48
2022/11/06 01:47:56;;;;;;;1.58;1.00;;;20.10;44.90;;;;;;5030197;28;20045;-47
2022/11/06 01:50:22;;;;;;;3.17;1.23;;;20.10;44.90;;;;;;5049509;28;20057;-47
2022/11/06 01:52:50;;;;;;;3.55;1.13;;;20.00;44.90;;;;;;5056023;28;20071;-49
2022/11/06 01:55:26;;;;;;;2.55;1.00;;;20.10;45.00;;;;;;5056919;28;20461;-47
2022/11/06 01:57:53;;;;;;;1.70;1.00;;;20.10;44.90;;;;;;5037553;28;20025;-48
2022/11/06 02:00:19;;;;;;;1.33;0.90;;;20.00;44.90;;;;;;5049893;28;20036;-47
2022/11/06 02:02:45;;;;;;;3.60;1.10;;;20.00;44.90;;;;;;5055449;28;20056;-48
2022/11/06 02:05:11;;;;;;;3.08;0.90;;;20.00;44.90;;;;;;5048665;28;20368;-46
2022/11/06 02:07:39;;;;;;;2.88;1.27;;;20.00;44.90;;;;;;5036381;28;20029;-47
2022/11/06 02:10:05;;;;;;;2.13;1.10;;;20.00;45.00;;;;;;5036185;28;20389;-47
2022/11/06 02:13:12;;;;;;;1.83;1.00;;;20.00;44.90;;;;;;5049831;28;20108;-50
2022/11/06 02:15:56;;;;;;;1.80;0.77;;;20.00;44.90;;;;;;5017729;28;20355;-46
2022/11/06 02:18:35;;;;;;;2.20;0.93;;;20.00;44.90;;;;;;5052276;28;20162;-47
2022/11/06 02:21:22;;;;;;;1.77;0.90;;;20.00;44.90;;;;;;5035885;28;20046;-47
2022/11/06 02:24:00;;;;;;;2.35;1.13;;;20.00;44.90;;;;;;5041485;28;20028;-52
2022/11/06 02:26:47;;;;;;;1.88;0.80;;;20.00;44.90;;;;;;5055732;28;20118;-46
2022/11/06 02:29:24;;;;;;;3.15;1.08;;;20.00;45.00;;;;;;5050581;28;20049;-53
2022/11/06 02:31:53;;;;;;;2.13;0.80;;;20.00;45.00;;;;;;5036964;28;20037;-54
2022/11/06 02:34:22;;;;;;;1.95;1.02;;;20.00;45.00;;;;;;5035326;28;20029;-51
2022/11/06 02:36:59;;;;;;;1.85;0.98;;;20.00;45.00;;;;;;5049932;28;20360;-45
2022/11/06 02:39:27;;;;;;;1.25;0.75;;;19.90;45.00;;;;;;5044600;28;20033;-45
2022/11/06 02:41:56;;;;;;;1.80;0.80;;;20.00;45.00;;;;;;5040494;28;20028;-47
2022/11/06 02:44:26;;;;;;;2.00;1.00;;;20.00;45.00;;;;;;5055408;28;20040;-46
2022/11/06 02:47:00;;;;;;;1.45;0.75;;;19.90;45.00;;;;;;5054678;28;20025;-47
2022/11/06 02:49:52;;;;;;;2.00;1.07;;;19.90;45.00;;;;;;5043087;28;20795;-46
2022/11/06 02:52:30;;;;;;;3.65;1.20;;;19.90;45.00;;;;;;5041899;28;20287;-51
2022/11/06 02:55:07;;;;;;;1.42;0.90;;;19.90;45.00;;;;;;5054856;28;20098;-45
2022/11/06 02:57:37;;;;;;;1.65;0.70;;;19.90;45.00;;;;;;5054797;28;20031;-46
2022/11/06 03:00:12;;;;;;;2.83;1.05;;;19.90;45.00;;;;;;5053096;28;20025;-52
2022/11/06 03:03:01;;;;;;;2.35;0.90;;;19.90;45.00;;;;;;5047837;28;20436;-52
2022/11/06 03:05:41;;;;;;;1.95;0.80;;;19.90;45.00;;;;;;5034973;28;20050;-48
2022/11/06 03:08:25;;;;;;;2.17;0.95;;;19.90;45.00;;;;;;5041275;28;20394;-51
2022/11/06 03:11:13;;;;;;;2.40;0.80;;;19.90;45.00;;;;;;5054905;28;20367;-48
2022/11/06 03:14:09;;;;;;;3.25;0.60;;;19.90;45.00;;;;;;5036180;28;20296;-49
2022/11/06 03:16:48;;;;;;;1.38;0.82;;;19.90;45.00;;;;;;5034780;28;20060;-47
2022/11/06 03:19:31;;;;;;;2.42;0.95;;;19.90;45.00;;;;;;5050246;28;20063;-46
2022/11/06 03:21:57;;;;;;;1.48;0.85;;;19.90;45.10;;;;;;5052197;28;20033;-48
2022/11/06 03:24:37;;;;;;;1.90;1.00;;;19.90;45.10;;;;;;5041331;28;20037;-50
2022/11/06 03:27:11;;;;;;;1.50;0.85;;;19.90;45.10;;;;;;5054861;28;20033;-47
2022/11/06 03:29:39;;;;;;;2.05;0.90;;;19.80;45.10;;;;;;5054525;28;20106;-49
2022/11/06 03:32:38;;;;;;;2.42;0.90;;;19.80;45.10;;;;;;5051536;28;20041;-48
2022/11/06 03:35:40;;;;;;;2.50;0.90;;;19.80;45.10;;;;;;5034534;28;20172;-47
2022/11/06 03:38:24;;;;;;;3.17;0.93;;;19.90;45.10;;;;;;5017355;28;20029;-46
2022/11/06 03:40:54;;;;;;;2.42;0.95;;;19.80;45.10;;;;;;5034724;28;20052;-46
2022/11/06 03:43:25;;;;;;;1.65;0.68;;;19.80;45.10;;;;;;5045178;28;20090;-47
2022/11/06 03:45:53;;;;;;;2.10;1.13;;;19.90;45.80;;;;;;5034480;28;20037;-47
2022/11/06 03:48:30;;;;;;;3.28;0.90;;;19.80;45.10;;;;;;5044731;28;20409;-51
2022/11/06 03:51:07;;;;;;;1.98;0.80;;;19.80;45.20;;;;;;5054400;28;20044;-46
2022/11/06 03:53:44;;;;;;;2.28;0.90;;;19.80;45.20;;;;;;5039661;28;20484;-46
2022/11/06 03:56:29;;;;;;;2.53;0.80;;;19.80;45.20;;;;;;5038657;28;20079;-46
2022/11/06 03:58:57;;;;;;;2.45;0.80;;;19.80;45.20;;;;;;5040209;28;20025;-52
2022/11/06 04:01:27;;;;;;;3.40;1.00;;;19.80;45.20;;;;;;5053601;28;20037;-47
2022/11/06 04:04:08;;;;;;;2.53;0.70;;;19.80;45.20;;;;;;5049231;28;20040;-49
2022/11/06 04:06:41;;;;;;;2.95;1.23;;;19.80;45.20;;;;;;5054169;28;20057;-46
2022/11/06 04:14:47;;;;;;;3.80;1.05;;;19.80;45.30;;;;;;5034206;28;20037;-49
2022/11/06 04:17:14;;;;;;;3.17;0.85;;;19.80;45.30;;;;;;5034149;28;20033;-47
2022/11/06 04:19:51;;;;;;;2.00;0.70;;;19.80;45.30;;;;;;5052938;28;20033;-49
2022/11/06 04:22:38;;;;;;;2.33;0.85;;;19.80;45.30;;;;;;5052036;28;20064;-47
2022/11/06 04:28:22;;;;;;;3.08;1.00;;;19.80;45.30;;;;;;5054460;28;20033;-51
2022/11/06 04:31:13;;;;;;;2.00;0.88;;;19.80;45.30;;;;;;5056728;28;20128;-54
2022/11/06 04:33:49;;;;;;;1.77;0.70;;;19.80;45.30;;;;;;5044321;28;20037;-52
2022/11/06 04:36:25;;;;;;;2.08;0.70;;;19.80;45.40;;;;;;5045404;28;20033;-54
2022/11/06 04:39:28;;;;;;;3.95;1.20;;;19.80;45.40;;;;;;5041665;28;20041;-51
2022/11/06 04:41:59;;;;;;;3.20;0.88;;;19.80;45.40;;;;;;4971480;28;20093;-51
2022/11/06 04:44:35;;;;;;;1.85;0.77;;;19.80;45.40;;;;;;5044441;28;20088;-50
2022/11/06 04:47:07;;;;;;;0.70;0.45;;;19.70;45.40;;;;;;5054872;28;20044;-51
2022/11/06 04:49:36;;;;;;;2.42;0.70;;;19.70;45.50;;;;;;5037519;28;20032;-49
2022/11/06 04:52:05;;;;;;;0.85;0.63;;;19.70;45.50;;;;;;5037488;28;20083;-46
2022/11/06 04:54:32;;;;;;;1.67;0.90;;;19.70;45.50;;;;;;5037518;28;20083;-47
2022/11/06 04:56:59;;;;;;;1.33;0.55;;;19.70;45.60;;;;;;5037689;28;20183;-46
2022/11/06 04:59:26;;;;;;;1.52;0.70;;;19.70;45.60;;;;;;5040114;28;20032;-46
2022/11/06 05:01:52;;;;;;;2.85;0.88;;;19.70;45.60;;;;;;5052328;28;20025;-46
2022/11/06 05:04:18;;;;;;;1.98;0.90;;;19.70;45.60;;;;;;5038151;28;20029;-50
2022/11/06 05:06:44;;;;;;;1.45;0.60;;;19.70;45.60;;;;;;5048092;28;20037;-47
2022/11/06 05:09:10;;;;;;;3.38;0.77;;;19.70;45.60;;;;;;5041799;28;20036;-47
2022/11/06 05:11:37;;;;;;;2.08;0.70;;;19.70;45.60;;;;;;5038807;28;20107;-48
2022/11/06 05:14:03;;;;;;;1.50;0.50;;;19.70;45.60;;;;;;5043032;28;20067;-46
2022/11/06 05:16:29;;;;;;;3.00;1.13;;;19.70;45.60;;;;;;5037030;28;20326;-48
2022/11/06 05:18:55;;;;;;;1.67;0.63;;;19.70;45.60;;;;;;5038418;28;20108;-49
2022/11/06 05:24:05;;;;;;;1.23;0.60;;;19.70;45.60;;;;;;5049062;28;20112;-45
2022/11/06 05:26:31;;;;;;;1.85;0.80;;;19.70;45.60;;;;;;5056964;28;20513;-47
2022/11/06 05:28:57;;;;;;;1.92;0.75;;;19.70;45.60;;;;;;5055750;28;20043;-51
2022/11/06 05:31:23;;;;;;;1.55;0.80;;;19.70;45.60;;;;;;5056334;28;20036;-46
2022/11/06 05:33:49;;;;;;;2.65;1.17;;;19.70;45.60;;;;;;5051796;28;20039;-49
2022/11/06 05:36:15;;;;;;;0.90;0.65;;;19.70;45.60;;;;;;5034715;28;20025;-49
2022/11/06 05:38:41;;;;;;;2.50;0.70;;;19.70;45.70;;;;;;5047485;28;20033;-47
2022/11/06 05:41:07;;;;;;;1.67;0.70;;;19.70;45.80;;;;;;5056096;28;20040;-49
2022/11/06 05:43:33;;;;;;;2.67;0.70;;;19.70;45.80;;;;;;5049553;28;20029;-47
2022/11/06 05:45:59;;;;;;;3.15;0.73;;;19.70;45.80;;;;;;5036219;28;20048;-46
2022/11/06 05:48:26;;;;;;;2.00;0.70;;;19.70;45.80;;;;;;5047295;28;20102;-46
2022/11/06 05:50:52;;;;;;;1.08;0.60;;;19.70;45.80;;;;;;5056449;28;20037;-46
2022/11/06 05:53:18;;;;;;;1.92;0.95;;;19.70;45.80;;;;;;5046423;28;20033;-50
2022/11/06 05:55:47;;;;;;;2.55;0.98;;;19.70;45.80;;;;;;5036322;28;20025;-47
2022/11/06 05:58:13;;;;;;;2.47;0.93;;;19.70;45.80;;;;;;5037065;28;20034;-51
2022/11/06 06:00:39;;;;;;;2.40;0.73;;;19.70;45.90;;;;;;5025590;28;20468;-46
2022/11/06 06:03:05;;;;;;;3.92;1.00;;;19.70;45.90;;;;;;5039566;28;20133;-49
2022/11/06 06:05:30;;;;;;;1.63;0.80;;;19.70;45.90;;;;;;5055811;28;20449;-47
2022/11/06 06:07:56;;;;;;;1.60;0.80;;;19.70;45.90;;;;;;5050839;28;20057;-49
2022/11/06 06:10:22;;;;;;;1.95;0.80;;;19.60;45.90;;;;;;5040587;28;20361;-49
2022/11/06 06:12:49;;;;;;;1.92;0.60;;;19.70;46.00;;;;;;5049713;28;20041;-48
2022/11/06 06:15:16;;;;;;;1.90;0.70;;;19.70;46.00;;;;;;5036126;28;20029;-53
2022/11/06 06:17:42;;;;;;;3.00;1.17;;;19.70;46.00;;;;;;5039096;28;20072;-47
2022/11/06 06:20:09;;;;;;;2.35;0.90;;;19.70;46.00;;;;;;5054368;28;20352;-47
2022/11/06 06:22:34;;;;;;;2.22;0.60;;;19.70;46.00;;;;;;5054675;28;20029;-52
2022/11/06 06:25:00;;;;;;;3.35;0.70;;;19.60;46.00;;;;;;5054979;28;20422;-49
2022/11/06 06:27:26;;;;;;;2.38;0.70;;;19.70;46.00;;;;;;5055399;28;20092;-50
2022/11/06 06:29:52;;;;;;;1.83;0.77;;;19.70;46.00;;;;;;5055056;28;20029;-52
2022/11/06 06:32:18;;;;;;;1.50;0.57;;;19.60;46.60;;;;;;5054080;28;20044;-54
2022/11/06 06:34:44;;;;;;;2.75;1.08;;;19.70;46.10;;;;;;5054112;28;20048;-54
2022/11/06 06:37:10;;;;;;;3.95;0.80;;;19.60;46.00;;;;;;5041783;28;20101;-54
2022/11/06 06:39:36;;;;;;;1.27;0.65;;;19.70;46.10;;;;;;5055562;28;20029;-48
2022/11/06 06:42:02;;;;;;;2.15;0.77;;;19.60;46.00;;;;;;5046155;28;20025;-47
2022/11/06 06:44:28;;;;;;;1.80;0.65;;;19.70;46.10;;;;;;5050894;28;20029;-46
2022/11/06 06:46:53;;;;;;;2.13;0.68;;;19.60;46.00;;;;;;5051536;28;20328;-47
2022/11/06 06:49:19;;;;;;;2.47;0.73;;;19.60;46.00;;;;;;5026127;28;20085;-47
2022/11/06 06:51:47;;;;;;;3.10;0.70;;;19.60;46.10;;;;;;5054911;28;20041;-46
2022/11/06 06:54:13;;;;;;;1.60;0.52;;;19.60;46.10;;;;;;5053875;28;20439;-49
2022/11/06 06:56:39;;;;;;;1.95;0.90;;;19.60;46.10;;;;;;5035217;28;20040;-45
2022/11/06 06:59:06;;;;;;;2.15;0.70;;;19.70;46.10;;;;;;5035180;28;20116;-45
2022/11/06 07:01:32;;;;;;;1.73;0.68;;;19.60;46.10;;;;;;5044025;28;20029;-46
2022/11/06 07:03:58;;;;;;;2.20;0.73;;;19.60;46.10;;;;;;5043198;28;20030;-47
2022/11/06 07:06:24;;;;;;;1.83;0.70;;;19.60;46.10;;;;;;5034970;28;20033;-51
2022/11/06 07:08:55;;;;;;;1.70;0.70;;;19.60;46.10;;;;;;5050544;28;20065;-45
2022/11/06 07:11:21;;;;;;;1.80;0.75;;;19.60;46.10;;;;;;5052230;28;20045;-46
2022/11/06 07:13:48;;;;;;;1.60;0.50;;;19.60;46.20;;;;;;5054219;28;20053;-48
2022/11/06 07:16:14;;;;;;;2.38;0.68;;;19.70;46.20;;;;;;5054503;28;20029;-52
2022/11/06 07:18:40;;;;;;;1.75;0.50;;;19.60;46.20;;;;;;5048711;28;20123;-46
2022/11/06 07:21:07;;;;;;;1.58;0.60;;;19.60;46.20;;;;;;5048889;28;20033;-50
2022/11/06 07:23:37;;;;;;;1.63;0.60;;;19.60;46.20;;;;;;5054704;28;20028;-51
2022/11/06 07:26:04;;;;;;;2.95;0.88;;;19.60;46.20;;;;;;5054490;28;20029;-50
2022/11/06 07:28:30;;;;;;;2.08;0.88;;;19.60;46.30;;;;;;5052461;28;20033;-50
2022/11/06 07:30:58;;;;;;;1.35;0.55;;;19.60;46.30;;;;;;5052819;28;20036;-47
2022/11/06 07:33:24;;;;;;;1.77;0.75;;;19.60;46.30;;;;;;5041478;28;20029;-48
2022/11/06 07:35:50;;;;;;;1.50;0.65;;;19.60;46.30;;;;;;5053692;28;20448;-50
2022/11/06 07:38:16;;;;;;;4.93;0.90;;;19.60;46.30;;;;;;5022910;28;20108;-47
2022/11/06 07:40:41;;;;;;;2.53;0.70;;;19.60;46.30;;;;;;5035608;28;20029;-48
2022/11/06 07:43:10;;;;;;;2.35;0.80;;;19.70;46.40;;;;;;5041446;28;20028;-51
2022/11/06 07:45:38;;;;;;;4.70;1.08;;;19.70;46.40;;;;;;5054033;28;20033;-49
2022/11/06 07:48:04;;;;;;;1.92;0.80;;;19.70;46.40;;;;;;5033158;28;20025;-47
2022/11/06 07:50:31;;;;;;;2.75;0.95;;;19.60;46.30;;;;;;5054082;28;20029;-50
2022/11/06 07:52:59;;;;;;;3.17;0.70;;;19.60;46.30;;;;;;5034322;28;20431;-48
2022/11/06 07:55:25;;;;;;;2.97;0.65;;;19.70;46.30;;;;;;5050375;28;20033;-53
2022/11/06 07:57:51;;;;;;;1.80;0.60;;;19.70;46.30;;;;;;5044651;28;20040;-50
2022/11/06 08:00:17;;;;;;;2.10;0.80;;;19.70;46.30;;;;;;5037929;28;20503;-49
2022/11/06 08:02:43;;;;;;;4.05;0.80;;;19.60;46.20;;;;;;5047488;28;20059;-50
2022/11/06 08:05:09;;;;;;;3.45;0.90;;;19.60;46.20;;;;;;5053970;28;20044;-50
2022/11/06 08:07:35;;;;;;;1.85;0.68;;;19.60;46.30;;;;;;5042028;28;20030;-51
2022/11/06 08:10:01;;;;;;;2.90;0.90;;;19.70;46.30;;;;;;5037003;28;20049;-49
2022/11/06 08:12:27;;;;;;;2.38;0.80;;;19.60;46.30;;;;;;5058074;28;20033;-49
2022/11/06 08:14:52;;;;;;;4.97;0.80;;;19.70;46.30;;;;;;5047930;28;20087;-48
2022/11/06 08:17:18;;;;;;;2.25;0.88;;;19.60;46.30;;;;;;5040404;28;20030;-50
2022/11/06 08:19:44;;;;;;;1.45;0.85;;;19.70;46.30;;;;;;5054810;28;20360;-45
2022/11/06 08:22:10;;;;;;;1.85;1.00;;;19.70;46.40;;;;;;5055602;28;20020;-47
2022/11/06 08:24:36;;;;;;;2.22;0.80;;;19.70;46.40;;;;;;5049877;28;20021;-47
2022/11/06 08:27:02;;;;;;;3.20;0.73;;;19.60;46.30;;;;;;5050053;28;20036;-48
2022/11/06 08:29:28;;;;;;;2.85;1.02;;;19.70;46.40;;;;;;5047944;28;20041;-50
2022/11/06 08:31:54;;;;;;;1.80;0.90;;;19.70;46.40;;;;;;5043858;28;20037;-51
2022/11/06 08:34:20;;;;;;;3.60;1.20;;;19.70;46.40;;;;;;5040856;28;20036;-53
2022/11/06 08:36:46;;;;;;;2.67;0.70;;;19.70;46.40;;;;;;5041326;28;20031;-53
2022/11/06 08:39:12;;;;;;;1.63;0.80;;;19.70;46.40;;;;;;5057154;28;20453;-49
2022/11/06 08:41:41;;;;;;;2.70;1.00;;;19.70;46.40;;;;;;5055137;28;20035;-49
2022/11/06 08:44:07;;;;;;;1.55;0.70;;;19.70;46.40;;;;;;5057344;28;20033;-51
2022/11/06 08:46:34;;;;;;;1.83;0.82;;;19.70;46.40;;;;;;5043700;28;20104;-51
2022/11/06 08:48:59;;;;;;;3.10;1.10;;;19.70;46.50;;;;;;5052667;28;20032;-47
2022/11/06 08:51:25;;;;;;;3.83;0.80;;;19.70;46.50;;;;;;5053472;28;20033;-48
2022/11/06 08:53:51;;;;;;;2.25;1.00;;;19.70;46.50;;;;;;5054771;28;20025;-52
2022/11/06 08:56:17;;;;;;;2.38;1.02;;;19.70;46.50;;;;;;5056270;28;20112;-50
2022/11/06 08:58:43;;;;;;;4.25;1.10;;;19.70;46.60;;;;;;5056996;28;20025;-47
2022/11/06 09:01:09;;;;;;;2.20;0.82;;;19.80;46.60;;;;;;5052337;28;20053;-48
2022/11/06 09:03:42;;;;;;;3.47;1.10;;;19.70;46.60;;;;;;5046009;28;20029;-45
2022/11/06 09:06:08;;;;;;;2.22;1.05;;;19.70;46.60;;;;;;5052337;28;20128;-45
2022/11/06 09:08:33;;;;;;;3.03;1.20;;;19.70;46.60;;;;;;5046090;28;20330;-45
2022/11/06 09:10:59;;;;;;;1.58;0.90;;;19.70;46.70;;;;;;5041877;28;20072;-47
2022/11/06 09:13:26;;;;;;;2.80;1.10;;;19.70;46.80;;;;;;5051818;28;20475;-48
2022/11/06 09:15:51;;;;;;;3.58;0.98;;;19.70;47.00;;;;;;5033747;28;20060;-46
2022/11/06 09:18:17;;;;;;;3.35;1.20;;;19.70;47.10;;;;;;5030473;28;20067;-47
2022/11/06 09:20:43;;;;;;;4.95;1.25;;;19.70;47.30;;;;;;5053068;28;20037;-43
2022/11/06 09:23:09;;;;;;;3.40;0.90;;;19.80;47.50;;;;;;5036079;28;20026;-45
2022/11/06 09:25:35;;;;;;;1.88;0.90;;;19.80;47.60;;;;;;5036212;28;20033;-46
2022/11/06 09:28:01;;;;;;;3.50;1.17;;;19.80;47.70;;;;;;5041183;28;20094;-49
2022/11/06 09:30:29;;;;;;;3.38;1.05;;;19.80;47.80;;;;;;5047414;28;20041;-49
2022/11/06 09:32:58;;;;;;;2.83;1.10;;;19.80;48.00;;;;;;5038316;28;20037;-56
2022/11/06 09:35:25;;;;;;;2.60;0.93;;;19.80;48.10;;;;;;5049626;28;20465;-61
2022/11/06 09:37:52;;;;;;;1.65;0.70;;;19.80;48.10;;;;;;5040000;28;20377;-55
2022/11/06 09:40:28;;;;;;;1.40;0.52;;;19.80;48.00;;;;;;5027905;28;20471;-59
2022/11/06 09:42:58;;;;;;;1.98;0.75;;;19.80;47.90;;;;;;5042734;28;20021;-48
2022/11/06 09:45:28;;;;;;;1.80;1.00;;;19.80;47.90;;;;;;5050578;28;20051;-48
2022/11/06 09:47:59;;;;;;;3.35;1.00;;;19.80;47.90;;;;;;5056504;28;20344;-47
2022/11/06 09:50:29;;;;;;;1.70;0.80;;;19.80;47.90;;;;;;5055850;28;20044;-49
2022/11/06 09:53:08;;;;;;;3.20;0.90;;;19.80;47.90;;;;;;5056106;28;20475;-46
2022/11/06 09:55:39;;;;;;;3.53;1.02;;;19.80;48.00;;;;;;5041851;28;20033;-46
2022/11/06 09:58:11;;;;;;;2.55;0.88;;;19.90;48.10;;;;;;5037366;28;20037;-44
2022/11/06 10:00:38;;;;;;;2.22;0.77;;;19.90;48.00;;;;;;5054654;28;20080;-44
2022/11/06 10:03:16;;;;;;;2.17;0.85;;;19.90;48.00;;;;;;5043682;28;20033;-45
2022/11/06 10:05:45;;;;;;;2.08;0.60;;;20.00;48.10;;;;;;5043627;28;20022;-48
2022/11/06 10:08:22;;;;;;;4.47;0.90;;;20.00;48.10;;;;;;5041369;28;20033;-51
2022/11/06 10:11:07;;;;;;;1.45;0.82;;;20.00;48.10;;;;;;5047262;28;20064;-46
2022/11/06 10:13:57;;;;;;;1.92;0.60;;;20.00;48.10;;;;;;5055689;28;20098;-44
2022/11/06 10:16:48;;;;;;;1.90;0.75;;;20.00;48.00;;;;;;5048413;28;20076;-44
2022/11/06 10:19:44;;;;;;;2.60;0.85;;;20.00;48.00;;;;;;5045879;28;20036;-44
2022/11/06 10:22:15;;;;;;;2.75;0.85;;;20.00;48.00;;;;;;5035468;28;20038;-45
2022/11/06 10:25:05;;;;;;;2.72;0.70;;;20.00;48.00;;;;;;5053521;28;20025;-55
2022/11/06 10:27:39;;;;;;;1.75;0.73;;;20.10;48.10;;;;;;5054813;28;20025;-52
2022/11/06 10:30:10;;;;;;;3.38;1.42;;;20.10;48.20;;;;;;5055168;28;20036;-50
2022/11/06 10:33:15;;;;;;;18.58;7.15;;;20.10;48.20;;;;;;5055468;28;20029;-54
2022/11/06 10:36:05;;;;;;;22.07;8.63;;;20.10;49.10;;;;;;5048587;28;20064;-51
2022/11/06 10:38:36;;;;;;;26.50;9.57;;;20.20;50.50;;;;;;5044459;28;20279;-55
2022/11/06 10:41:03;;;;;;;21.92;8.38;;;20.20;51.50;;;;;;5054985;28;20033;-54
2022/11/06 10:43:39;;;;;;;15.32;6.68;;;20.20;51.90;;;;;;5055169;28;20077;-52
2022/11/06 10:46:16;;;;;;;11.02;5.05;;;20.30;51.80;;;;;;5055277;28;20102;-53
2022/11/06 10:48:57;;;;;;;7.28;2.80;;;20.30;51.20;;;;;;5037484;28;20033;-50
2022/11/06 10:51:26;;;;;;;10.15;3.78;;;20.20;50.40;;;;;;5039275;28;20037;-53
2022/11/06 10:53:52;;;;;;;11.75;4.22;;;20.30;50.20;;;;;;5036241;28;20033;-54
2022/11/06 10:56:21;;;;;;;15.20;5.25;;;20.30;50.70;;;;;;5047177;28;20087;-55
2022/11/06 10:58:47;;;;;;;20.23;11.13;;;20.30;51.40;;;;;;5039842;28;20369;-57
2022/11/06 11:01:14;;;;;;;33.25;14.38;;;20.40;51.90;;;;;;5048354;28;20033;-55
2022/11/06 11:03:43;;;;;;;40.55;16.35;;;20.40;52.30;;;;;;5054760;28;20452;-53
2022/11/06 11:06:08;;;;;;;27.52;13.48;;;20.40;53.00;;;;;;5055127;28;20029;-53
2022/11/06 11:08:40;;;;;;;28.20;12.98;;;20.40;53.80;;;;;;5051957;28;20101;-55
2022/11/06 11:11:12;;;;;;;28.00;11.32;;;20.50;54.50;;;;;;5046794;28;20135;-54
2022/11/06 11:13:47;;;;;;;23.08;11.50;;;20.50;54.70;;;;;;5035018;28;20455;-52
2022/11/06 11:16:20;;;;;;;38.13;18.48;;;20.50;54.80;;;;;;5035050;28;20022;-52
2022/11/06 11:18:47;;;;;;;40.95;21.33;;;20.50;55.40;;;;;;5035301;28;20044;-50
2022/11/06 11:21:16;;;;;;;34.15;19.30;;;20.60;54.80;;;;;;5034531;28;20094;-51
2022/11/06 11:23:42;;;;;;;30.88;16.33;;;20.60;54.40;;;;;;5034843;28;20040;-51
2022/11/06 11:26:26;;;;;;;24.38;13.90;;;20.60;54.20;;;;;;5034246;28;20457;-48
2022/11/06 11:28:55;;;;;;;23.13;11.88;;;20.60;53.70;;;;;;5034773;28;20044;-49
2022/11/06 11:31:32;;;;;;;16.95;9.95;;;20.70;53.10;;;;;;5043656;28;20051;-50
2022/11/06 11:34:03;;;;;;;17.05;9.15;;;20.70;52.60;;;;;;5054494;28;20033;-49
2022/11/06 11:36:52;;;;;;;19.83;9.02;;;20.70;52.30;;;;;;5054277;28;20051;-48
2022/11/06 11:39:21;;;;;;;15.25;7.45;;;20.70;52.40;;;;;;5048338;28;20026;-48
2022/11/06 11:41:47;;;;;;;13.82;7.05;;;20.70;52.30;;;;;;5038701;28;20037;-50
2022/11/06 11:44:17;;;;;;;16.88;8.60;;;20.70;52.10;;;;;;5045644;28;20036;-51
2022/11/06 11:46:51;;;;;;;17.45;7.40;;;20.80;51.90;;;;;;5058447;28;20379;-53
2022/11/06 11:49:30;;;;;;;;;;;20.80;51.50;;;;;;5052786;28;20025;-52
2022/11/06 11:52:10;;;;;;;11.80;6.05;;;20.80;51.30;;;;;;5038390;28;19917;-52
2022/11/06 11:54:36;;;;;;;12.27;5.03;;;20.80;50.90;;;;;;5038741;28;20385;-51
2022/11/06 11:57:05;;;;;;;10.85;4.90;;;20.80;50.70;;;;;;5020957;28;20083;-52
2022/11/06 11:59:43;;;;;;;10.52;4.15;;;20.80;50.50;;;;;;5051533;28;20348;-51
2022/11/06 12:02:32;;;;;;;9.43;3.90;;;20.80;50.20;;;;;;5037317;28;20047;-49
2022/11/06 12:05:09;;;;;;;8.73;3.80;;;20.80;49.90;;;;;;5038308;28;20036;-52
2022/11/06 12:07:40;;;;;;;8.35;3.28;;;20.80;49.60;;;;;;5040708;28;20049;-48
2022/11/06 12:10:36;;;;;;;6.75;3.35;;;20.80;49.40;;;;;;5051883;28;20041;-51
2022/11/06 12:13:24;;;;;;;9.05;3.30;;;20.80;49.10;;;;;;5050008;28;20482;-54
2022/11/06 12:15:50;;;;;;;6.80;2.90;;;20.80;48.90;;;;;;5019412;28;20048;-52
2022/11/06 12:18:22;;;;;;;5.80;2.53;;;20.80;48.70;;;;;;5046544;28;20025;-50
2022/11/06 12:21:11;;;;;;;4.75;2.70;;;20.80;48.40;;;;;;5065780;28;20036;-53
2022/11/06 12:23:45;;;;;;;5.70;2.63;;;20.80;48.10;;;;;;5050830;28;20037;-55
2022/11/06 12:26:37;;;;;;;5.32;2.90;;;20.80;47.90;;;;;;5048604;28;20025;-54
2022/11/06 12:29:29;;;;;;;3.25;1.92;;;20.80;47.70;;;;;;5045303;28;20108;-50
2022/11/06 12:32:22;;;;;;;5.70;2.30;;;20.80;47.40;;;;;;5043977;28;20448;-52
2022/11/06 12:34:59;;;;;;;5.85;2.38;;;20.80;47.30;;;;;;5050413;28;20025;-53
2022/11/06 12:37:57;;;;;;;6.28;1.98;;;20.80;47.10;;;;;;5050104;28;20036;-54
2022/11/06 12:40:38;;;;;;;5.20;1.83;;;20.80;46.90;;;;;;5048594;28;20041;-54
2022/11/06 12:43:35;;;;;;;4.43;2.10;;;20.80;46.80;;;;;;5047955;28;20046;-55
2022/11/06 12:46:23;;;;;;;4.95;1.80;;;20.80;46.60;;;;;;5052606;28;20032;-51
2022/11/06 12:48:48;;;;;;;6.85;1.73;;;20.80;46.50;;;;;;5048224;28;20021;-50
2022/11/06 12:51:32;;;;;;;4.68;1.80;;;20.80;46.40;;;;;;5050508;28;20041;-53
2022/11/06 12:54:36;;;;;;;4.00;1.40;;;20.80;46.30;;;;;;5045115;28;20082;-57
2022/11/06 12:57:20;;;;;;;3.78;1.55;;;20.80;46.10;;;;;;5050457;28;20329;-56
2022/11/06 13:00:11;;;;;;;5.03;1.50;;;20.70;46.10;;;;;;5049140;28;20462;-55
2022/11/06 13:03:14;;;;;;;4.13;1.50;;;20.80;46.00;;;;;;5046793;28;20037;-50
2022/11/06 13:06:01;;;;;;;4.45;1.60;;;20.80;46.00;;;;;;5043670;28;20029;-52
2022/11/06 13:08:51;;;;;;;5.85;1.50;;;20.80;46.00;;;;;;5049348;28;20448;-48
2022/11/06 13:11:59;;;;;;;3.83;1.30;;;20.80;45.90;;;;;;5001194;28;20050;-49
2022/11/06 13:14:47;;;;;;;3.63;1.48;;;20.70;45.90;;;;;;5001111;28;20631;-53
2022/11/06 13:17:49;;;;;;;4.63;1.17;;;20.70;45.80;;;;;;5002036;28;20439;-53
2022/11/06 13:20:31;;;;;;;4.40;1.52;;;20.70;45.80;;;;;;4963994;28;20073;-52
2022/11/06 13:23:03;;;;;;;2.63;1.40;;;20.80;45.90;;;;;;5005925;28;20092;-51
2022/11/06 13:26:06;;;;;;;3.58;1.52;;;20.70;45.80;;;;;;5008659;28;20125;-50